Time;durP1;ratioP1;P1;durP2;ratioP2;P2;SDS_P1;SDS_P2;PMS_P1;PMS_P2;Temp;Humidity;BMP_temperature;BMP_pressure;BME280_temperature;BME280_humidity;BME280_pressure;Samples;Min_cycle;Max_cycle;Signal;HPM_P1;HPM_P2
2021/06/15 00:00:03;;;;;;;10.85;2.63;;;11.00;99.90;;;;;;4962874;28;20039;-92
2021/06/15 00:02:29;;;;;;;6.63;2.30;;;11.00;99.90;;;;;;4947733;28;20502;-94
2021/06/15 00:04:54;;;;;;;10.85;2.75;;;10.90;99.90;;;;;;4964214;28;20328;-92
2021/06/15 00:07:20;;;;;;;10.43;2.97;;;10.80;99.90;;;;;;4962825;28;20611;-93
2021/06/15 00:09:46;;;;;;;10.20;2.33;;;10.70;99.90;;;;;;4961660;28;20034;-93
2021/06/15 00:12:13;;;;;;;9.70;2.63;;;10.70;99.90;;;;;;4961157;28;20054;-94
2021/06/15 00:14:40;;;;;;;11.52;2.95;;;10.70;99.90;;;;;;4959576;28;20019;-93
2021/06/15 00:17:08;;;;;;;14.68;2.92;;;10.60;99.90;;;;;;4970654;28;20161;-94
2021/06/15 00:19:34;;;;;;;9.85;2.15;;;10.60;99.90;;;;;;4969986;28;20038;-93
2021/06/15 00:22:00;;;;;;;8.70;2.58;;;10.60;99.90;;;;;;4966241;28;20026;-92
2021/06/15 00:24:26;;;;;;;7.32;2.20;;;10.60;99.90;;;;;;4966303;28;20484;-94
2021/06/15 00:26:52;;;;;;;14.77;2.92;;;10.60;99.90;;;;;;4966139;28;20027;-92
2021/06/15 00:29:18;;;;;;;9.55;2.53;;;10.60;99.90;;;;;;4965828;28;20026;-93
2021/06/15 00:31:43;;;;;;;8.00;2.13;;;10.60;99.90;;;;;;4946244;28;20101;-92
2021/06/15 00:34:09;;;;;;;9.60;2.22;;;10.50;99.90;;;;;;4961506;28;20042;-92
2021/06/15 00:36:35;;;;;;;11.68;2.65;;;10.50;99.90;;;;;;4960380;28;20049;-93
2021/06/15 00:39:02;;;;;;;8.40;2.75;;;10.40;99.90;;;;;;4963409;28;20035;-92
2021/06/15 00:41:28;;;;;;;15.23;3.00;;;10.30;99.90;;;;;;4963461;28;20027;-93
2021/06/15 00:43:54;;;;;;;12.70;2.97;;;10.20;99.90;;;;;;4962897;28;20046;-92
2021/06/15 00:46:19;;;;;;;8.45;2.28;;;10.10;99.90;;;;;;4962536;28;20022;-93
2021/06/15 00:48:46;;;;;;;11.15;2.33;;;10.10;99.90;;;;;;4962092;28;20058;-92
2021/06/15 00:51:13;;;;;;;8.40;2.35;;;10.00;99.90;;;;;;4959982;28;20034;-93
2021/06/15 00:53:39;;;;;;;17.85;2.88;;;10.00;99.90;;;;;;4959761;28;20019;-93
2021/06/15 00:56:05;;;;;;;9.68;2.90;;;9.90;99.90;;;;;;4961135;28;20026;-95
2021/06/15 00:58:31;;;;;;;14.63;2.72;;;9.90;99.90;;;;;;4957005;28;20047;-93
2021/06/15 01:00:57;;;;;;;10.45;2.65;;;9.80;99.90;;;;;;4960238;28;20035;-93
2021/06/15 01:03:26;;;;;;;15.10;3.50;;;9.90;99.90;;;;;;4960674;28;20495;-93
2021/06/15 01:05:52;;;;;;;10.15;2.63;;;9.80;99.90;;;;;;4960092;28;20037;-92
2021/06/15 01:08:33;;;;;;;14.50;3.45;;;9.80;99.90;;;;;;4961530;28;20026;-91
2021/06/15 01:11:08;;;;;;;11.15;3.30;;;9.80;99.90;;;;;;4958220;28;20196;-94
2021/06/15 01:13:53;;;;;;;15.25;2.95;;;9.70;99.90;;;;;;4964526;28;20014;-93
2021/06/15 01:16:41;;;;;;;11.40;2.70;;;9.70;99.90;;;;;;4979246;28;20027;-92
2021/06/15 01:19:22;;;;;;;14.43;2.78;;;9.70;99.90;;;;;;4962261;28;20054;-93
2021/06/15 01:22:08;;;;;;;14.55;2.72;;;9.60;99.90;;;;;;4962389;28;20046;-94
2021/06/15 01:24:53;;;;;;;10.25;3.05;;;9.60;99.90;;;;;;4962090;28;20027;-93
2021/06/15 01:27:21;;;;;;;16.67;3.45;;;9.60;99.90;;;;;;4961720;28;20034;-92
2021/06/15 01:29:52;;;;;;;12.93;2.67;;;9.50;99.90;;;;;;4961745;28;20022;-92
2021/06/15 01:32:30;;;;;;;10.07;2.53;;;9.50;99.90;;;;;;4961526;28;20022;-92
2021/06/15 01:34:57;;;;;;;9.45;3.90;;;9.50;99.90;;;;;;4976253;28;20026;-92
2021/06/15 01:37:37;;;;;;;14.90;2.65;;;9.50;99.90;;;;;;4967471;28;20090;-93
2021/06/15 01:40:15;;;;;;;7.88;2.42;;;9.50;99.90;;;;;;4981165;28;20027;-92
2021/06/15 01:42:48;;;;;;;10.30;2.95;;;9.50;99.90;;;;;;4961198;28;20226;-92
2021/06/15 01:45:28;;;;;;;14.38;2.10;;;9.50;99.90;;;;;;4960700;28;20112;-93
2021/06/15 01:48:05;;;;;;;6.50;2.30;;;9.40;99.90;;;;;;4960672;28;20023;-93
2021/06/15 01:50:36;;;;;;;8.32;3.03;;;9.40;99.90;;;;;;4960835;28;20026;-93
2021/06/15 01:53:04;;;;;;;11.05;2.30;;;9.40;99.90;;;;;;4960501;28;20023;-93
2021/06/15 01:55:33;;;;;;;13.38;2.60;;;9.40;99.90;;;;;;4960243;28;20083;-91
2021/06/15 01:58:00;;;;;;;11.23;2.47;;;9.30;99.90;;;;;;4960374;28;20038;-92
2021/06/15 02:00:28;;;;;;;10.90;2.28;;;9.30;99.90;;;;;;4960671;28;20062;-93
2021/06/15 02:02:54;;;;;;;12.23;2.30;;;9.30;99.90;;;;;;4960370;28;20580;-93
2021/06/15 02:05:27;;;;;;;12.65;2.28;;;9.20;99.90;;;;;;4960612;28;20117;-91
2021/06/15 02:07:55;;;;;;;10.18;2.33;;;9.20;99.90;;;;;;4960564;28;20026;-93
2021/06/15 02:10:21;;;;;;;5.78;2.72;;;9.10;99.90;;;;;;4960564;28;20054;-92
2021/06/15 02:12:52;;;;;;;9.30;3.03;;;9.00;99.90;;;;;;4960288;28;20028;-93
2021/06/15 02:15:18;;;;;;;13.77;3.30;;;8.90;99.90;;;;;;4960283;28;20461;-94
2021/06/15 02:17:47;;;;;;;12.07;2.80;;;8.90;99.90;;;;;;4960577;28;20117;-92
2021/06/15 02:20:15;;;;;;;9.25;2.35;;;8.90;99.90;;;;;;4964786;28;20114;-92
2021/06/15 02:22:48;;;;;;;13.75;2.70;;;8.80;99.90;;;;;;4963835;28;20567;-91
2021/06/15 02:25:20;;;;;;;8.57;2.40;;;8.80;99.90;;;;;;4960170;28;20022;-94
2021/06/15 02:27:46;;;;;;;11.30;2.72;;;8.80;99.90;;;;;;4964012;28;20034;-92
2021/06/15 02:30:13;;;;;;;10.70;2.80;;;8.80;99.90;;;;;;4963845;28;20022;-93
2021/06/15 02:32:42;;;;;;;10.10;2.85;;;8.70;99.90;;;;;;4963748;28;20026;-93
2021/06/15 02:35:10;;;;;;;10.85;3.35;;;8.60;99.90;;;;;;4962813;28;20065;-92
2021/06/15 02:37:52;;;;;;;11.15;3.60;;;8.50;99.90;;;;;;4963583;28;20030;-92
2021/06/15 02:40:21;;;;;;;8.00;3.00;;;8.40;99.90;;;;;;4970566;28;20033;-93
2021/06/15 02:42:48;;;;;;;11.57;3.50;;;8.30;99.90;;;;;;4964036;28;20027;-93
2021/06/15 02:45:16;;;;;;;6.55;3.03;;;8.20;99.90;;;;;;4958348;28;20026;-93
2021/06/15 02:47:44;;;;;;;13.82;3.65;;;8.20;99.90;;;;;;4961893;28;20031;-92
2021/06/15 02:50:11;;;;;;;7.93;2.83;;;8.20;99.90;;;;;;4961966;28;20429;-92
2021/06/15 02:52:52;;;;;;;18.95;3.15;;;8.30;99.90;;;;;;4963817;28;20054;-92
2021/06/15 02:55:27;;;;;;;13.75;3.63;;;8.30;99.90;;;;;;4979010;28;20023;-92
2021/06/15 02:57:53;;;;;;;9.20;3.20;;;8.30;99.90;;;;;;4969143;28;20129;-93
2021/06/15 03:00:19;;;;;;;13.50;3.30;;;8.30;99.90;;;;;;4964775;28;20066;-92
2021/06/15 03:02:45;;;;;;;12.50;3.10;;;8.30;99.90;;;;;;4964091;28;20055;-92
2021/06/15 03:05:19;;;;;;;11.38;3.03;;;8.30;99.90;;;;;;4962846;28;20030;-92
2021/06/15 03:07:47;;;;;;;9.43;2.83;;;8.20;99.90;;;;;;4963731;28;20027;-93
2021/06/15 03:10:13;;;;;;;6.05;3.22;;;8.20;99.90;;;;;;4963922;28;20062;-93
2021/06/15 03:13:21;;;;;;;11.18;3.47;;;8.10;99.90;;;;;;4963715;28;20027;-92
2021/06/15 03:15:53;;;;;;;7.43;3.35;;;8.10;99.90;;;;;;4972266;28;20039;-93
2021/06/15 03:18:38;;;;;;;12.10;2.90;;;8.00;99.90;;;;;;4963331;28;20027;-93
2021/06/15 03:21:09;;;;;;;11.35;2.80;;;7.90;99.90;;;;;;4964500;28;20030;-92
2021/06/15 03:23:54;;;;;;;15.60;3.78;;;7.80;99.90;;;;;;4963070;28;20015;-94
2021/06/15 03:26:51;;;;;;;8.88;3.35;;;7.80;99.90;;;;;;4978382;28;20153;-94
2021/06/15 03:29:21;;;;;;;16.52;3.15;;;7.70;99.90;;;;;;4961926;28;20555;-92
2021/06/15 03:31:50;;;;;;;11.30;3.60;;;7.70;99.90;;;;;;4963082;28;20026;-93
2021/06/15 03:34:21;;;;;;;13.63;3.30;;;7.70;99.90;;;;;;4962220;28;20019;-92
2021/06/15 03:36:47;;;;;;;12.85;4.10;;;7.70;99.90;;;;;;4963544;28;20106;-91
2021/06/15 03:39:17;;;;;;;12.48;4.05;;;7.60;99.90;;;;;;4963071;28;20039;-93
2021/06/15 03:41:43;;;;;;;8.98;3.30;;;7.60;99.90;;;;;;4962800;28;20113;-94
2021/06/15 03:44:12;;;;;;;15.15;3.65;;;7.60;99.90;;;;;;4962746;28;20019;-93
2021/06/15 03:46:40;;;;;;;14.27;3.72;;;7.50;99.90;;;;;;4963835;28;20027;-93
2021/06/15 03:49:11;;;;;;;8.70;3.00;;;7.50;99.90;;;;;;4962669;28;20053;-92
2021/06/15 03:51:44;;;;;;;9.77;3.40;;;7.50;99.90;;;;;;4961453;28;20041;-92
2021/06/15 03:54:12;;;;;;;10.13;3.42;;;7.60;99.90;;;;;;4961503;28;20023;-92
2021/06/15 03:56:44;;;;;;;11.25;3.33;;;7.60;99.90;;;;;;4962236;28;20051;-92
2021/06/15 03:59:16;;;;;;;9.00;3.00;;;7.60;99.90;;;;;;4962535;28;20031;-93
2021/06/15 04:01:45;;;;;;;11.95;3.33;;;7.70;99.90;;;;;;4962110;28;20038;-91
2021/06/15 04:04:15;;;;;;;17.30;4.32;;;7.70;99.90;;;;;;4962163;28;20054;-92
2021/06/15 04:06:46;;;;;;;14.37;3.50;;;7.80;99.90;;;;;;4962516;28;20023;-92
2021/06/15 04:09:15;;;;;;;;;;;7.80;99.90;;;;;;4963642;28;20034;-93
2021/06/15 04:11:44;;;;;;;9.20;3.13;;;7.80;99.90;;;;;;4962443;28;19917;-92
2021/06/15 04:14:12;;;;;;;9.65;2.97;;;7.70;99.90;;;;;;4962183;28;20028;-93
2021/06/15 04:16:39;;;;;;;11.05;3.58;;;7.70;99.90;;;;;;4964767;28;20023;-92
2021/06/15 04:19:11;;;;;;;9.65;3.20;;;7.60;99.90;;;;;;4968991;28;20062;-94
2021/06/15 04:21:45;;;;;;;11.98;2.80;;;7.50;99.90;;;;;;4962665;28;20050;-94
2021/06/15 04:24:14;;;;;;;13.65;3.35;;;7.50;99.90;;;;;;4962569;28;20027;-93
2021/06/15 04:26:40;;;;;;;8.57;3.88;;;7.60;99.90;;;;;;4961910;28;20034;-93
2021/06/15 04:29:07;;;;;;;14.10;3.75;;;7.50;99.90;;;;;;4961898;28;20023;-94
2021/06/15 04:31:38;;;;;;;9.27;3.35;;;7.60;99.90;;;;;;4961643;28;20023;-95
2021/06/15 04:34:04;;;;;;;12.07;3.10;;;7.60;99.90;;;;;;4961152;28;20038;-93
2021/06/15 04:36:32;;;;;;;16.35;3.65;;;7.70;99.90;;;;;;4965461;28;20027;-94
2021/06/15 04:39:07;;;;;;;12.45;3.75;;;7.70;99.90;;;;;;4960885;28;20029;-95
2021/06/15 04:41:39;;;;;;;14.82;3.47;;;7.70;99.90;;;;;;4961808;28;20031;-93
2021/06/15 04:44:11;;;;;;;11.50;3.20;;;7.70;99.90;;;;;;4960925;28;20042;-94
2021/06/15 04:46:45;;;;;;;8.85;3.47;;;7.80;99.90;;;;;;4959158;28;20034;-94
2021/06/15 04:49:53;;;;;;;9.88;3.13;;;7.80;99.90;;;;;;4960638;28;20077;-93
2021/06/15 04:52:23;;;;;;;9.80;3.03;;;7.80;99.90;;;;;;4974680;28;20037;-93
2021/06/15 04:54:50;;;;;;;14.18;3.60;;;7.90;99.90;;;;;;4960804;28;20046;-93
2021/06/15 04:57:28;;;;;;;9.18;3.50;;;7.80;99.90;;;;;;4961563;28;20046;-92
2021/06/15 04:59:58;;;;;;;11.05;3.40;;;7.80;99.90;;;;;;4961106;28;20030;-94
2021/06/15 05:02:26;;;;;;;14.38;3.45;;;7.80;99.90;;;;;;4961786;28;20015;-93
2021/06/15 05:04:53;;;;;;;11.73;3.72;;;7.80;99.90;;;;;;4961047;28;20078;-92
2021/06/15 05:07:20;;;;;;;10.68;3.17;;;7.80;99.90;;;;;;4961008;28;20023;-94
2021/06/15 05:09:59;;;;;;;11.85;3.95;;;7.90;99.90;;;;;;4960976;28;20045;-93
2021/06/15 05:12:29;;;;;;;6.78;2.92;;;7.90;99.90;;;;;;4973133;28;20038;-93
2021/06/15 05:14:58;;;;;;;11.20;3.60;;;7.90;99.90;;;;;;4960947;28;20631;-94
2021/06/15 05:17:24;;;;;;;10.88;3.63;;;7.90;99.90;;;;;;4960706;28;20037;-92
2021/06/15 05:19:50;;;;;;;7.43;3.20;;;8.00;99.90;;;;;;4960555;28;20037;-94
2021/06/15 05:22:26;;;;;;;14.00;3.42;;;8.00;99.90;;;;;;4959917;28;20026;-93
2021/06/15 05:24:56;;;;;;;9.80;3.42;;;8.10;99.90;;;;;;4960020;28;20031;-92
2021/06/15 05:27:25;;;;;;;7.20;3.10;;;8.20;99.90;;;;;;4960590;28;20050;-93
2021/06/15 05:29:52;;;;;;;12.40;3.60;;;8.20;99.90;;;;;;4960920;28;20031;-93
2021/06/15 05:32:18;;;;;;;10.27;3.53;;;8.30;99.90;;;;;;4960844;28;20094;-94
2021/06/15 05:34:43;;;;;;;10.07;3.35;;;8.40;99.90;;;;;;4962055;28;20114;-93
2021/06/15 05:37:10;;;;;;;16.85;4.38;;;8.50;99.90;;;;;;4966854;28;20038;-92
2021/06/15 05:39:37;;;;;;;11.60;3.42;;;8.60;99.90;;;;;;4969933;28;20062;-93
2021/06/15 05:42:07;;;;;;;8.80;3.60;;;8.60;99.90;;;;;;4963300;28;20019;-94
2021/06/15 05:44:34;;;;;;;13.82;3.90;;;8.70;99.90;;;;;;4963768;28;20023;-94
2021/06/15 05:46:59;;;;;;;10.80;3.67;;;8.70;99.90;;;;;;4965153;28;20120;-93
2021/06/15 05:49:25;;;;;;;10.00;3.90;;;8.80;99.90;;;;;;4963680;28;20039;-94
2021/06/15 05:51:58;;;;;;;9.20;3.25;;;8.80;99.90;;;;;;4960713;28;20074;-93
2021/06/15 05:54:25;;;;;;;9.10;3.40;;;8.90;99.90;;;;;;4977814;28;20102;-92
2021/06/15 05:56:50;;;;;;;13.85;4.18;;;8.90;99.90;;;;;;4959252;28;20043;-94
2021/06/15 05:59:16;;;;;;;18.85;4.78;;;9.10;99.90;;;;;;4959782;28;20031;-93
2021/06/15 06:01:42;;;;;;;17.05;3.70;;;9.10;99.90;;;;;;4961091;28;20030;-93
2021/06/15 06:04:10;;;;;;;13.45;4.55;;;9.20;99.90;;;;;;4963686;28;20035;-92
2021/06/15 06:09:23;;;;;;;10.65;3.58;;;9.20;99.90;;;;;;4980132;28;20041;-93
2021/06/15 06:11:49;;;;;;;16.00;4.50;;;9.30;99.90;;;;;;4961373;28;20030;-95
2021/06/15 06:14:15;;;;;;;8.77;3.28;;;9.30;99.90;;;;;;4961519;28;20031;-93
2021/06/15 06:16:43;;;;;;;11.57;3.35;;;9.40;99.90;;;;;;4960007;28;20030;-92
2021/06/15 06:19:11;;;;;;;9.80;5.03;;;9.50;99.90;;;;;;4961365;28;20524;-91
2021/06/15 06:21:37;;;;;;;15.63;3.42;;;9.60;99.90;;;;;;4956582;28;20031;-94
2021/06/15 06:24:06;;;;;;;14.20;3.40;;;9.60;99.90;;;;;;4973870;28;20111;-93
2021/06/15 06:26:32;;;;;;;8.98;3.60;;;9.80;99.90;;;;;;4961598;28;20022;-94
2021/06/15 06:29:00;;;;;;;11.65;4.70;;;9.80;99.90;;;;;;4960787;28;20038;-93
2021/06/15 06:31:26;;;;;;;17.23;4.20;;;9.90;99.90;;;;;;4955752;28;20041;-93
2021/06/15 06:33:51;;;;;;;16.20;3.80;;;9.90;99.90;;;;;;4959814;28;20035;-93
2021/06/15 06:36:17;;;;;;;15.07;4.13;;;10.00;99.90;;;;;;4960738;28;20034;-92
2021/06/15 06:38:52;;;;;;;9.43;3.78;;;10.10;99.90;;;;;;4972775;28;20035;-94
2021/06/15 06:41:19;;;;;;;9.20;3.63;;;10.20;99.90;;;;;;4956477;28;20146;-93
2021/06/15 06:43:45;;;;;;;11.25;3.92;;;10.30;99.90;;;;;;4972964;28;20034;-92
2021/06/15 06:46:11;;;;;;;15.80;4.97;;;10.30;99.90;;;;;;4958329;28;20027;-93
2021/06/15 06:48:37;;;;;;;10.00;3.03;;;10.40;99.90;;;;;;4957534;28;20037;-91
2021/06/15 06:51:03;;;;;;;10.32;3.17;;;10.50;99.90;;;;;;4951192;28;20039;-92
2021/06/15 06:53:29;;;;;;;14.05;3.50;;;10.60;99.90;;;;;;4955343;28;20374;-94
2021/06/15 06:55:57;;;;;;;12.60;3.40;;;10.70;99.90;;;;;;4960328;28;20042;-92
2021/06/15 06:58:25;;;;;;;11.80;3.33;;;10.80;99.90;;;;;;4970690;28;20047;-92
2021/06/15 07:00:51;;;;;;;9.68;3.20;;;10.80;99.90;;;;;;4958534;28;20665;-89
2021/06/15 07:03:17;;;;;;;8.60;2.85;;;10.90;99.90;;;;;;4958999;28;20026;-90
2021/06/15 07:05:43;;;;;;;14.70;3.53;;;11.00;99.90;;;;;;4959614;28;20031;-90
2021/06/15 07:08:09;;;;;;;10.32;2.95;;;11.10;99.90;;;;;;4961271;28;20085;-91
2021/06/15 07:10:35;;;;;;;10.98;3.45;;;11.20;99.90;;;;;;4962601;28;20037;-90
2021/06/15 07:13:01;;;;;;;10.93;3.78;;;11.30;99.90;;;;;;4960032;28;20027;-91
2021/06/15 07:15:27;;;;;;;14.60;3.35;;;11.50;99.90;;;;;;4959815;28;20026;-92
2021/06/15 07:17:53;;;;;;;15.50;4.28;;;11.60;99.90;;;;;;4960453;28;20180;-93
2021/06/15 07:20:18;;;;;;;16.08;3.50;;;11.80;99.90;;;;;;4964411;28;20041;-94
2021/06/15 07:22:47;;;;;;;15.02;3.13;;;11.90;99.90;;;;;;4962586;28;20027;-92
2021/06/15 07:25:14;;;;;;;14.13;3.50;;;12.00;99.90;;;;;;4964012;28;20026;-93
2021/06/15 07:27:46;;;;;;;12.65;3.10;;;12.20;99.90;;;;;;4963063;28;20031;-93
2021/06/15 07:30:13;;;;;;;14.70;2.90;;;12.40;99.90;;;;;;4961917;28;20070;-92
2021/06/15 07:32:44;;;;;;;13.73;2.78;;;12.50;99.90;;;;;;4962690;28;20492;-92
2021/06/15 07:35:16;;;;;;;16.17;3.20;;;12.60;99.90;;;;;;4961493;28;20433;-93
2021/06/15 07:37:42;;;;;;;12.75;3.25;;;12.70;99.90;;;;;;4961198;28;20031;-93
2021/06/15 07:40:23;;;;;;;11.23;3.00;;;12.80;99.90;;;;;;4961692;28;20042;-92
2021/06/15 07:42:57;;;;;;;11.00;2.42;;;13.00;99.90;;;;;;4962504;28;20031;-93
2021/06/15 07:45:25;;;;;;;15.27;2.70;;;13.20;99.90;;;;;;4961748;28;20070;-93
2021/06/15 07:47:59;;;;;;;7.10;2.03;;;13.30;99.90;;;;;;4976513;28;20122;-92
2021/06/15 07:50:25;;;;;;;11.70;2.10;;;13.50;99.90;;;;;;4963816;28;20034;-93
2021/06/15 07:52:51;;;;;;;7.60;1.40;;;13.70;99.90;;;;;;4959341;28;20101;-93
2021/06/15 07:55:18;;;;;;;4.65;1.52;;;13.80;99.90;;;;;;4959645;28;20057;-93
2021/06/15 07:57:45;;;;;;;4.65;1.35;;;14.00;99.90;;;;;;4973536;28;20050;-93
2021/06/15 08:00:15;;;;;;;3.35;1.40;;;14.10;99.90;;;;;;4960524;28;20058;-93
2021/06/15 08:02:44;;;;;;;6.28;1.50;;;14.30;99.90;;;;;;4961185;28;20062;-94
2021/06/15 08:05:11;;;;;;;5.90;1.40;;;14.40;99.90;;;;;;4978856;28;20038;-92
2021/06/15 08:07:37;;;;;;;6.35;1.70;;;14.60;98.50;;;;;;4962867;28;20034;-93
2021/06/15 08:10:18;;;;;;;2.42;1.13;;;14.70;97.80;;;;;;4962736;28;20023;-92
2021/06/15 08:12:45;;;;;;;3.97;1.00;;;14.80;96.40;;;;;;4960096;28;20035;-92
2021/06/15 08:15:11;;;;;;;2.58;1.00;;;14.90;95.10;;;;;;4963186;28;20027;-92
2021/06/15 08:17:37;;;;;;;9.45;1.23;;;15.10;94.50;;;;;;4973310;28;20049;-93
2021/06/15 08:20:09;;;;;;;6.82;1.83;;;15.20;94.00;;;;;;4976929;28;20041;-92
2021/06/15 08:22:38;;;;;;;4.75;1.15;;;15.40;93.30;;;;;;4961637;28;20022;-93
2021/06/15 08:25:06;;;;;;;5.95;1.45;;;15.60;92.60;;;;;;4958736;28;20041;-93
2021/06/15 08:27:35;;;;;;;3.65;1.20;;;15.70;92.10;;;;;;4960996;28;20029;-92
2021/06/15 08:30:06;;;;;;;2.95;1.33;;;15.90;91.40;;;;;;4962596;28;20031;-92
2021/06/15 08:32:32;;;;;;;2.75;1.10;;;16.00;90.20;;;;;;4962817;28;20023;-92
2021/06/15 08:35:01;;;;;;;2.85;0.98;;;16.20;89.20;;;;;;4963171;28;20099;-94
2021/06/15 08:37:26;;;;;;;4.25;1.00;;;16.20;87.50;;;;;;4962209;28;20026;-92
2021/06/15 08:39:52;;;;;;;1.83;1.10;;;16.30;86.10;;;;;;4961956;28;20370;-93
2021/06/15 08:43:12;;;;;;;4.68;1.15;;;16.50;84.70;;;;;;4964765;28;20027;-96
2021/06/15 09:13:52;;;;;;;4.15;1.05;;;17.30;74.60;;;;;;5964435;23;20038;-95
2021/06/15 09:20:44;;;;;;;;;;;;;;;;;;;;;
2021/06/15 09:27:53;;;;;;;;;;;;;;;;;;;;;
2021/06/15 09:37:23;;;;;;;;;;;;;;;;;;;;;
2021/06/15 09:40:14;;;;;;;3.85;1.10;;;18.70;70.50;;;;;;5026159;28;20073;-94
2021/06/15 09:46:22;;;;;;;3.10;1.25;;;19.00;68.70;;;;;;5023067;28;20046;-95
2021/06/15 09:49:01;;;;;;;4.75;1.23;;;19.00;67.70;;;;;;5008148;28;20352;-94
2021/06/15 09:51:32;;;;;;;5.18;1.63;;;18.90;67.70;;;;;;5006023;28;20391;-95
2021/06/15 09:54:07;;;;;;;5.20;1.15;;;19.00;67.50;;;;;;5006365;28;20045;-94
2021/06/15 09:56:39;;;;;;;2.58;1.02;;;19.00;66.80;;;;;;5007767;28;20026;-95
2021/06/15 09:59:30;;;;;;;;;;;;;;;;;;;;;
2021/06/15 10:02:13;;;;;;;;;;;;;;;;;;;;;
2021/06/15 10:05:17;;;;;;;3.45;1.33;;;18.90;67.20;;;;;;5018051;28;20123;-93
2021/06/15 15:01:48;;;;;;;5.30;2.03;;;26.30;51.30;;;;;;1353748;23;20227;-97
2021/06/15 15:04:17;;;;;;;6.45;2.25;;;26.50;51.00;;;;;;4996216;28;20568;-95
2021/06/15 15:06:43;;;;;;;5.82;2.42;;;26.60;50.80;;;;;;5002524;28;20045;-95
2021/06/15 15:09:09;;;;;;;6.70;1.95;;;26.40;50.30;;;;;;4998904;28;20022;-94
2021/06/15 15:11:38;;;;;;;8.10;1.98;;;26.20;51.00;;;;;;5000215;28;20109;-95
2021/06/15 15:14:03;;;;;;;7.68;2.45;;;26.20;51.00;;;;;;5002886;28;20030;-94
2021/06/15 15:16:29;;;;;;;4.85;1.98;;;26.10;50.90;;;;;;5000005;28;20418;-94
2021/06/15 15:18:56;;;;;;;12.77;2.88;;;25.90;51.00;;;;;;5002082;28;20117;-93
2021/06/15 15:21:26;;;;;;;10.68;2.40;;;25.90;50.80;;;;;;5021123;28;20060;-92
2021/06/15 15:23:54;;;;;;;6.13;2.27;;;25.90;50.90;;;;;;5004277;28;20026;-94
2021/06/15 15:26:21;;;;;;;6.53;2.85;;;25.90;51.00;;;;;;5004828;28;20419;-96
2021/06/15 15:28:47;;;;;;;8.07;2.60;;;25.70;50.70;;;;;;5006234;28;20034;-92
2021/06/15 15:31:16;;;;;;;11.00;3.50;;;25.60;50.90;;;;;;5002810;28;20029;-94
2021/06/15 15:34:01;;;;;;;10.10;2.70;;;25.80;51.30;;;;;;5002577;28;20030;-93
2021/06/15 15:36:27;;;;;;;9.23;2.63;;;25.90;51.10;;;;;;4997761;28;20034;-94
2021/06/15 15:38:55;;;;;;;8.93;2.80;;;26.00;50.90;;;;;;4996625;28;20050;-93
2021/06/15 15:41:46;;;;;;;4.68;2.38;;;26.20;50.90;;;;;;4994195;28;20061;-93
2021/06/15 15:44:14;;;;;;;7.57;2.40;;;26.10;50.70;;;;;;4987889;28;20033;-92
2021/06/15 15:46:44;;;;;;;9.90;2.70;;;26.00;50.90;;;;;;4994018;28;20025;-95
2021/06/15 15:49:14;;;;;;;8.77;2.83;;;25.80;50.70;;;;;;4991837;28;20041;-94
2021/06/15 15:51:41;;;;;;;8.23;2.70;;;25.60;51.10;;;;;;4988701;28;20084;-92
2021/06/15 15:54:07;;;;;;;7.88;2.40;;;25.50;51.60;;;;;;4981950;28;20042;-94
2021/06/15 15:56:32;;;;;;;8.13;2.80;;;25.40;51.60;;;;;;4982941;28;20087;-93
2021/06/15 15:58:58;;;;;;;10.60;3.08;;;25.30;51.90;;;;;;4982399;28;20019;-92
2021/06/15 16:01:24;;;;;;;11.30;3.47;;;25.40;52.10;;;;;;4981608;28;20034;-92
2021/06/15 16:03:50;;;;;;;7.57;2.97;;;25.50;52.10;;;;;;4982006;28;20145;-92
2021/06/15 16:06:19;;;;;;;10.80;3.38;;;25.40;52.00;;;;;;4982870;28;20034;-93
2021/06/15 16:08:44;;;;;;;15.07;4.03;;;25.30;52.20;;;;;;4983007;28;20057;-94
2021/06/15 16:11:16;;;;;;;10.30;4.10;;;25.30;51.80;;;;;;4983333;28;20027;-92
2021/06/15 16:13:44;;;;;;;8.20;3.38;;;25.20;51.70;;;;;;4986865;28;20039;-94
2021/06/15 16:16:13;;;;;;;8.40;3.22;;;24.80;51.90;;;;;;4991278;28;20030;-94
2021/06/15 16:18:40;;;;;;;10.77;4.00;;;24.60;52.30;;;;;;4982752;28;20542;-94
2021/06/15 16:21:06;;;;;;;6.75;2.80;;;24.60;52.70;;;;;;4981205;28;20089;-95
2021/06/15 16:23:35;;;;;;;13.32;3.20;;;24.70;52.50;;;;;;4980930;28;20054;-94
2021/06/15 16:26:01;;;;;;;12.32;3.47;;;24.80;52.00;;;;;;4984079;28;20034;-93
2021/06/15 16:28:27;;;;;;;12.80;3.08;;;24.80;51.60;;;;;;4982562;28;20030;-95
2021/06/15 16:30:53;;;;;;;7.18;2.60;;;24.80;51.70;;;;;;4986038;28;20028;-93
2021/06/15 16:33:19;;;;;;;15.55;2.97;;;24.70;51.60;;;;;;4997548;28;20021;-94
2021/06/15 16:35:45;;;;;;;9.27;2.72;;;24.60;51.20;;;;;;4989719;28;20041;-93
2021/06/15 16:38:11;;;;;;;8.25;2.72;;;24.40;50.70;;;;;;4983392;28;20064;-94
2021/06/15 18:04:54;;;;;;;9.65;1.60;;;23.00;53.80;;;;;;5385749;23;20078;-94
2021/06/15 18:07:31;;;;;;;7.78;2.25;;;23.00;53.90;;;;;;5011806;28;20124;-95
2021/06/15 18:09:59;;;;;;;5.82;1.85;;;23.10;53.80;;;;;;5007604;28;20026;-95
2021/06/15 18:15:22;;;;;;;7.35;1.75;;;23.10;53.70;;;;;;5044253;23;20077;-96
2021/06/15 18:17:49;;;;;;;6.82;1.50;;;23.10;53.70;;;;;;5113206;23;20111;-96
2021/06/15 18:23:00;;;;;;;3.97;1.42;;;22.90;53.90;;;;;;5882113;23;20112;-94
2021/06/15 18:25:30;;;;;;;5.85;1.83;;;22.80;54.10;;;;;;5036005;28;20032;-96
2021/06/15 18:27:57;;;;;;;;;;;22.70;54.50;;;;;;5035344;28;20366;-95
2021/06/15 18:30:27;;;;;;;4.28;1.48;;;22.70;54.80;;;;;;5051806;28;19905;-96
2021/06/15 18:32:54;;;;;;;6.20;1.60;;;22.60;54.80;;;;;;5044196;28;20010;-96
2021/06/15 18:35:25;;;;;;;10.07;1.80;;;22.50;54.80;;;;;;5034292;28;20020;-96
2021/06/15 18:37:56;;;;;;;;;;;22.40;55.00;;;;;;5020709;28;20018;-96
2021/06/15 18:40:26;;;;;;;8.48;1.85;;;22.30;55.10;;;;;;5067945;23;19921;-94
2021/06/15 18:55:55;;;;;;;5.20;1.40;;;21.80;56.70;;;;;;5733578;23;20050;-95
2021/06/15 19:03:50;;;;;;;11.25;1.60;;;21.60;57.70;;;;;;5674274;23;20109;-95
2021/06/15 19:08:53;;;;;;;7.18;1.70;;;21.40;58.40;;;;;;5124328;23;20112;-94
2021/06/15 19:11:20;;;;;;;4.38;1.60;;;21.30;58.70;;;;;;5030275;28;20029;-95
2021/06/15 19:13:46;;;;;;;6.30;2.00;;;21.20;58.90;;;;;;5034265;28;20033;-94
2021/06/15 19:16:20;;;;;;;7.10;1.40;;;21.20;59.20;;;;;;5028984;28;20044;-94
2021/06/15 19:18:47;;;;;;;7.78;1.30;;;21.10;59.30;;;;;;5007648;28;20030;-96
2021/06/15 19:21:16;;;;;;;4.72;1.50;;;21.10;59.50;;;;;;5004502;28;20033;-96
2021/06/15 19:24:09;;;;;;;5.68;1.60;;;21.10;59.50;;;;;;5025626;28;20079;-96
2021/06/15 19:26:38;;;;;;;9.20;1.67;;;21.00;59.80;;;;;;5043370;28;20026;-95
2021/06/15 19:29:16;;;;;;;5.10;1.38;;;20.90;60.00;;;;;;5037004;28;20030;-95
2021/06/15 19:31:54;;;;;;;5.20;1.75;;;20.90;60.30;;;;;;5036826;28;20096;-95
2021/06/15 19:34:33;;;;;;;8.18;1.60;;;20.80;60.40;;;;;;5057091;28;20025;-96
2021/06/15 19:36:59;;;;;;;5.57;1.38;;;20.70;60.70;;;;;;5001041;28;20042;-96
2021/06/15 19:39:25;;;;;;;9.05;1.77;;;20.60;61.00;;;;;;5015982;28;20030;-95
2021/06/15 19:41:56;;;;;;;5.95;1.33;;;20.50;61.20;;;;;;5016273;28;20032;-96
2021/06/15 19:44:27;;;;;;;4.55;1.73;;;20.50;61.60;;;;;;5015669;28;20027;-95
2021/06/15 19:46:53;;;;;;;;;;;20.40;61.90;;;;;;5000518;28;20029;-96
2021/06/15 19:49:22;;;;;;;5.35;1.80;;;20.30;62.10;;;;;;5014981;28;19910;-94
2021/06/15 19:52:11;;;;;;;7.85;1.55;;;20.30;62.10;;;;;;5002659;28;20029;-96
2021/06/15 19:54:48;;;;;;;6.40;1.30;;;20.30;62.40;;;;;;5033668;28;20086;-95
2021/06/15 19:57:14;;;;;;;6.45;2.03;;;20.20;62.50;;;;;;5002746;28;20476;-95
2021/06/15 19:59:46;;;;;;;4.30;1.85;;;20.10;62.50;;;;;;5014164;28;20042;-94
2021/06/15 20:02:57;;;;;;;4.30;1.33;;;20.00;62.60;;;;;;5015993;28;20018;-95
2021/06/15 20:05:27;;;;;;;4.05;1.63;;;19.90;62.70;;;;;;5035086;28;20025;-96
2021/06/15 20:08:02;;;;;;;7.43;1.88;;;19.90;63.10;;;;;;5028318;28;20072;-95
2021/06/15 20:10:44;;;;;;;8.48;2.08;;;19.90;63.60;;;;;;5022136;28;20040;-96
2021/06/15 21:45:46;;;;;;;10.75;2.50;;;17.20;73.90;;;;;;5413909;23;20253;-95
2021/06/15 21:48:11;;;;;;;6.13;1.88;;;17.10;74.20;;;;;;5019887;28;20029;-96
2021/06/15 22:06:50;;;;;;;5.30;2.10;;;16.40;77.00;;;;;;5932111;23;20050;-96
2021/06/15 22:22:34;;;;;;;5.45;1.75;;;16.00;78.90;;;;;;5047157;28;20041;-96
2021/06/15 22:25:06;;;;;;;7.20;1.80;;;16.00;79.30;;;;;;5007479;28;20037;-96
2021/06/15 22:27:32;;;;;;;7.50;3.08;;;15.90;79.70;;;;;;5014515;28;20053;-95
2021/06/15 22:29:58;;;;;;;9.45;2.20;;;15.80;80.20;;;;;;5023020;28;20025;-96
2021/06/15 22:32:25;;;;;;;8.02;2.17;;;15.70;80.50;;;;;;5026294;28;20036;-96
2021/06/15 22:34:51;;;;;;;9.75;2.97;;;15.60;81.10;;;;;;5028902;28;20093;-96
2021/06/15 22:37:16;;;;;;;11.85;2.30;;;15.50;81.80;;;;;;5046787;28;20025;-96
2021/06/15 22:39:42;;;;;;;4.93;2.20;;;15.40;82.30;;;;;;5037753;28;20021;-96
2021/06/15 22:42:08;;;;;;;9.25;2.00;;;15.30;82.90;;;;;;5039841;28;20048;-94
2021/06/15 22:44:34;;;;;;;13.02;2.40;;;15.30;83.60;;;;;;5047293;28;20041;-96